LJD weather

Cerro De Piedra Airport
La Jagua De Ibirico, César Department, Colombia

Public forecast

Using degrees Celsius for public forecast. Weather courtesy of forecast.io.

METAR (pilot weather report)

Closest report is Alfonso López Pumarejo Airport, 52.5 nm (97.2 km) N. Retrieved 2019/05/20 02:00 UTC (46 minutes ago):

SKVP 200200Z 03003KT 9999 FEW020 SCT100 24/23 A2989

TAF (pilot weather forecast)

Forecast is more than 12 hours old.

Closest forecast is Camilo Daza International Airport, 108.6 nm (201.1 km) SSE. Retrieved 2019/05/19 00:45 UTC (1 day ago):

TAF TAF SKCC 192230Z 2000/2024 VRB02KT 9999 FEW023 SCT100 BECMG 2013/2015 36010KT TX36/2018Z TN25/2011Z